CDT,Max TemperatureF,Mean TemperatureF,Min TemperatureF,Max Dew PointF,MeanDew PointF,Min DewpointF,Max Humidity, Mean Humidity, Min Humidity, Max Sea Level PressureIn, Mean Sea Level PressureIn, Min Sea Level PressureIn, Max VisibilityMiles, Mean VisibilityMiles, Min VisibilityMiles, Max Wind SpeedMPH, Mean Wind SpeedMPH, Max Gust SpeedMPH,PrecipitationIn, CloudCover, Events, WindDirDegrees
2012-10-1,71,56,40,53,41,33,89,59,34,30.07,30.00,29.92,10,10,10,21,7,31,0.00,2,Rain,345
2012-10-2,74,51,28,36,29,26,94,52,17,30.04,29.94,29.84,10,10,7,15,3,18,0.00,0,,200
2012-10-3,82,62,43,42,35,26,66,39,19,30.00,29.83,29.71,10,10,7,26,10,33,0.00,0,,195
2012-10-4,53,42,30,42,33,25,82,62,43,30.34,30.21,30.01,10,10,10,28,18,39,0.00,3,Thunderstorm,326
2012-10-5,52,38,24,29,25,20,91,64,34,30.36,30.30,30.25,10,10,10,20,5,25,0.00,0,,306
2012-10-6,46,35,24,27,22,18,82,64,44,30.38,30.33,30.30,10,10,10,16,8,25,0.00,1,,319
2012-10-7,59,38,16,30,22,15,94,58,23,30.30,30.12,29.94,10,10,10,21,6,31,0.00,0,,223
2012-10-8,75,59,43,41,31,26,62,42,17,29.93,29.82,29.71,10,10,7,21,12,29,0.00,4,Rain,250
2012-10-9,56,41,26,46,32,20,88,58,28,30.15,29.97,29.83,10,10,10,28,8,33,0.00,3,,325
2012-10-10,65,44,23,32,27,20,87,54,28,30.20,30.10,29.98,10,10,7,21,5,25,0.00,0,,207
2012-10-11,54,42,31,34,29,23,73,52,37,30.38,30.13,29.94,10,10,7,24,11,29,0.00,0,,16
2012-10-12,57,38,21,44,25,18,89,58,24,30.39,30.24,29.98,10,10,7,22,7,28,0.00,4,,157
2012-10-13,72,62,51,60,55,45,100,84,64,29.93,29.72,29.64,10,10,5,23,12,26,0.11,5,Rain-Thunderstorm,217
2012-10-14,65,51,37,50,38,34,85,61,33,29.98,29.89,29.69,10,10,10,25,12,34,0.00,0,,326
2012-10-15,77,54,30,47,38,29,100,62,26,29.98,29.87,29.70,10,10,10,16,5,20,0.00,0,,171
2012-10-16,77,62,46,48,44,41,89,54,31,29.69,29.52,29.35,10,10,10,17,8,25,0.00,0,,261
2012-10-17,68,60,51,50,34,19,75,42,23,29.57,29.46,29.28,10,10,5,40,21,46,0.00,4,Rain,296
2012-10-18,52,48,43,44,36,20,100,73,28,29.63,29.52,29.45,10,7,2,38,28,52,0.02,7,Rain,312
2012-10-19,45,39,33,42,41,34,100,94,86,29.82,29.76,29.64,10,9,3,32,20,44,0.00,7,Rain,330
2012-10-20,65,48,31,47,40,31,100,79,42,29.80,29.74,29.67,10,9,4,17,6,23,0.00,0,,166
2012-10-21,72,58,43,49,44,41,97,67,33,29.86,29.75,29.67,10,10,10,16,8,23,0.00,1,,335
2012-10-22,58,52,46,54,50,46,100,91,76,29.89,29.83,29.77,10,8,2,13,8,,0.00,7,Thunderstorm,8
2012-10-23,61,52,43,56,53,43,100,92,83,29.79,29.73,29.68,10,6,0,12,4,,0.00,7,Fog,206
2012-10-24,51,48,44,52,46,33,100,93,63,29.85,29.82,29.78,10,5,0,24,7,28,0.00,8,Fog-Rain-Thunderstorm,1
2012-10-25,41,38,31,37,31,27,97,84,63,30.33,30.08,29.78,10,8,2,28,18,36,0.11,7,Rain-Snow-Thunderstorm,329
2012-10-26,39,35,31,28,25,23,83,67,53,30.49,30.42,30.33,10,10,10,13,8,18,0.00,8,,309
2012-10-27,44,34,24,33,28,22,92,74,52,30.39,30.31,30.22,10,10,10,15,5,21,0.00,5,Rain,176
2012-10-28,52,42,31,33,30,27,89,66,38,30.27,30.21,30.14,10,10,10,23,11,25,0.00,4,,166
2012-10-29,58,48,38,32,30,29,69,52,33,30.17,30.12,30.07,10,10,10,22,15,28,0.00,2,,159
2012-10-30,54,44,33,30,29,26,81,60,34,30.10,30.07,30.04,10,10,7,12,7,18,0.00,4,,125
2012-10-31,63,44,24,35,29,23,95,65,32,30.06,30.02,29.96,10,10,7,10,2,,0.00,0,,189